Time;durP1;ratioP1;P1;durP2;ratioP2;P2;SDS_P1;SDS_P2;PMS_P1;PMS_P2;Temp;Humidity;BMP_temperature;BMP_pressure;BME280_temperature;BME280_humidity;BME280_pressure;Samples;Min_cycle;Max_cycle;Signal;HPM_P1;HPM_P2
2021/05/08 00:01:13;;;;;;;3.20;3.00;;;;;;;6.58;65.57;100917.06;6095560;29;20215;-73
2021/05/08 00:04:17;;;;;;;3.23;3.13;;;;;;;6.38;67.16;100937.66;6094813;29;20193;-73
2021/05/08 00:07:20;;;;;;;5.53;3.50;;;;;;;6.53;65.99;100933.06;6095070;29;20217;-73
2021/05/08 00:10:23;;;;;;;3.57;3.37;;;;;;;6.51;66.43;100935.13;6094035;29;20502;-73
2021/05/08 00:13:28;;;;;;;3.80;3.60;;;;;;;6.41;66.07;100915.59;6095291;29;20193;-73
2021/05/08 00:16:31;;;;;;;3.30;3.10;;;;;;;6.51;66.66;100935.13;6094890;29;20252;-72
2021/05/08 00:19:35;;;;;;;2.90;2.80;;;;;;;6.44;66.67;100942.34;6094078;29;20243;-73
2021/05/08 00:22:38;;;;;;;4.40;2.90;;;;;;;6.54;66.78;100938.31;6094164;29;20193;-72
2021/05/08 00:25:41;;;;;;;3.10;2.90;;;;;;;6.55;65.86;100939.97;6093754;29;20511;-73
2021/05/08 00:28:45;;;;;;;3.33;3.10;;;;;;;6.54;65.94;100932.06;6094625;29;20227;-73
2021/05/08 00:31:48;;;;;;;3.27;2.93;;;;;;;6.53;66.63;100941.19;6095156;29;20196;-73
2021/05/08 00:34:52;;;;;;;3.10;3.00;;;;;;;6.53;66.88;100941.19;6093590;29;20220;-73
2021/05/08 00:37:55;;;;;;;4.50;3.30;;;;;;;6.58;66.79;100927.91;6093680;29;20204;-73
2021/05/08 00:40:59;;;;;;;3.50;3.30;;;;;;;6.47;67.55;100942.78;6094328;29;20245;-72
2021/05/08 00:44:05;;;;;;;2.90;2.80;;;;;;;6.42;67.14;100939.00;6094782;29;20192;-72
2021/05/08 00:47:11;;;;;;;3.80;3.37;;;;;;;6.45;67.07;100944.00;6077898;29;20289;-74
2021/05/08 00:50:18;;;;;;;2.90;2.90;;;;;;;6.37;67.12;100947.66;6094552;29;20231;-72
2021/05/08 00:53:22;;;;;;;2.83;2.63;;;;;;;6.38;67.41;100940.38;6094528;29;20224;-72
2021/05/08 00:56:25;;;;;;;3.67;3.00;;;;;;;6.30;67.39;100953.00;6094374;29;20193;-72
2021/05/08 00:59:30;;;;;;;4.90;3.07;;;;;;;6.22;67.90;100944.94;6093146;29;20212;-72
2021/05/08 01:02:34;;;;;;;3.37;3.17;;;;;;;6.46;66.71;100948.41;6094640;29;20192;-73
2021/05/08 01:05:37;;;;;;;3.37;3.27;;;;;;;6.46;66.78;100940.28;6094303;29;20232;-74
2021/05/08 01:08:48;;;;;;;2.80;2.60;;;;;;;6.36;67.58;100947.84;6092666;29;20268;-73
2021/05/08 01:11:52;;;;;;;3.30;3.20;;;;;;;6.28;67.92;100944.22;6077050;29;20209;-72
2021/05/08 01:14:57;;;;;;;3.33;3.10;;;;;;;6.20;67.83;100949.72;6094405;29;20224;-72
2021/05/08 01:18:01;;;;;;;3.47;3.10;;;;;;;6.42;67.96;100950.63;6068234;29;20269;-74
2021/05/08 01:21:10;;;;;;;2.90;2.80;;;;;;;6.18;68.17;100943.66;6074497;29;20193;-73
2021/05/08 01:24:13;;;;;;;3.80;3.40;;;;;;;6.00;68.31;100923.38;6075858;29;20193;-73
2021/05/08 01:27:17;;;;;;;3.67;3.40;;;;;;;6.19;68.07;100939.91;6073290;29;20257;-72
2021/05/08 01:30:22;;;;;;;4.00;3.00;;;;;;;6.24;68.31;100937.47;6074122;29;20248;-72
2021/05/08 01:33:26;;;;;;;4.13;3.23;;;;;;;6.26;67.31;100946.28;6075621;29;20193;-72
2021/05/08 01:36:32;;;;;;;3.87;3.07;;;;;;;6.09;67.47;100928.50;6073439;29;20209;-72
2021/05/08 01:39:36;;;;;;;3.50;3.27;;;;;;;6.07;67.98;100952.22;6075258;29;20196;-73
2021/05/08 01:42:44;;;;;;;3.40;3.30;;;;;;;6.05;68.07;100948.03;6075031;29;20200;-72
2021/05/08 01:45:47;;;;;;;3.20;3.20;;;;;;;6.01;69.13;100952.13;6074084;29;20237;-72
2021/05/08 01:48:51;;;;;;;3.30;3.10;;;;;;;5.99;68.50;100955.00;6075204;29;20247;-72
2021/05/08 01:51:55;;;;;;;3.20;3.10;;;;;;;6.00;68.61;100951.28;6075209;29;20192;-73
2021/05/08 01:55:01;;;;;;;3.50;3.20;;;;;;;5.86;68.23;100938.56;6073129;29;20280;-73
2021/05/08 01:58:06;;;;;;;3.00;2.80;;;;;;;5.76;68.78;100959.59;6073781;29;20248;-73
2021/05/08 02:01:13;;;;;;;3.07;3.07;;;;;;;5.78;69.50;100957.53;6074921;29;20291;-73
2021/05/08 02:04:21;;;;;;;3.43;3.23;;;;;;;5.87;69.12;100950.22;6073175;29;20248;-73
2021/05/08 02:07:27;;;;;;;3.83;3.53;;;;;;;5.67;69.52;100955.28;6074411;29;20200;-73
2021/05/08 02:10:31;;;;;;;3.43;3.20;;;;;;;5.58;70.31;100964.50;6073424;29;20249;-73
2021/05/08 02:13:35;;;;;;;3.77;3.00;;;;;;;5.56;70.34;100958.44;6072572;29;20495;-73
2021/05/08 02:16:39;;;;;;;3.60;3.50;;;;;;;5.57;70.10;100958.22;6074300;29;20209;-72
2021/05/08 02:19:43;;;;;;;3.30;3.20;;;;;;;5.66;69.66;100964.44;6093780;29;20248;-72
2021/05/08 02:22:47;;;;;;;3.80;3.47;;;;;;;5.45;70.20;100961.53;6081037;29;20213;-73
2021/05/08 02:25:51;;;;;;;3.20;3.00;;;;;;;5.39;70.76;100962.28;6095256;29;20280;-73
2021/05/08 02:28:55;;;;;;;3.33;3.23;;;;;;;5.44;70.67;100962.59;6096388;29;20530;-74
2021/05/08 02:31:58;;;;;;;4.00;3.60;;;;;;;5.46;70.96;100968.66;6095459;29;20224;-73
2021/05/08 02:35:03;;;;;;;3.37;3.27;;;;;;;5.51;70.60;100966.25;6095793;29;20212;-72
2021/05/08 02:38:08;;;;;;;2.93;2.93;;;;;;;5.25;71.57;100968.47;6096066;29;20555;-74
2021/05/08 02:41:11;;;;;;;3.20;3.10;;;;;;;5.44;71.04;100970.72;6096312;29;20208;-73
2021/05/08 02:44:15;;;;;;;3.23;3.10;;;;;;;5.28;72.03;100976.22;6094673;29;20209;-73
2021/05/08 02:47:19;;;;;;;3.40;3.30;;;;;;;5.50;70.80;100980.78;6094905;29;20210;-72
2021/05/08 02:50:44;;;;;;;3.40;3.10;;;;;;;5.27;71.11;100975.38;6082958;29;20199;-73
2021/05/08 02:53:49;;;;;;;3.43;3.33;;;;;;;5.38;71.02;100979.53;6097161;29;20230;-74
2021/05/08 02:56:52;;;;;;;3.00;2.90;;;;;;;5.35;70.94;100977.19;6094950;29;20454;-73
2021/05/08 02:59:56;;;;;;;3.13;2.93;;;;;;;5.52;70.62;100992.31;6094961;29;20259;-72
2021/05/08 03:02:59;;;;;;;3.63;3.20;;;;;;;5.53;70.55;100981.28;6078663;29;20254;-72
2021/05/08 03:06:33;;;;;;;2.97;2.97;;;;;;;5.36;71.25;100990.56;6094675;29;20509;-73
2021/05/08 03:09:37;;;;;;;3.07;2.97;;;;;;;5.36;71.25;100995.13;6079231;29;20541;-73
2021/05/08 03:12:40;;;;;;;5.07;3.17;;;;;;;5.18;71.66;100959.38;6078871;29;20215;-73
2021/05/08 03:15:45;;;;;;;6.93;3.00;;;;;;;5.49;70.66;100987.25;6095117;29;20481;-73
2021/05/08 03:18:48;;;;;;;3.27;3.17;;;;;;;5.44;70.37;100986.94;6095334;29;20239;-73
2021/05/08 03:21:52;;;;;;;2.83;2.83;;;;;;;5.19;72.35;100998.94;6093902;29;20267;-73
2021/05/08 03:24:56;;;;;;;3.43;3.27;;;;;;;5.43;71.49;100996.06;6095052;29;20191;-72
2021/05/08 03:28:01;;;;;;;3.43;3.33;;;;;;;5.49;70.49;100995.38;6094983;29;20524;-72
2021/05/08 03:31:08;;;;;;;3.30;3.00;;;;;;;5.29;70.91;100988.75;6094510;29;20213;-73
2021/05/08 03:34:11;;;;;;;3.50;3.00;;;;;;;5.32;71.42;100993.75;6079222;29;20238;-73
2021/05/08 03:37:15;;;;;;;4.27;2.67;;;;;;;5.66;69.02;100996.91;6078264;29;20243;-73
2021/05/08 03:40:22;;;;;;;3.03;2.83;;;;;;;5.64;69.12;100993.56;6094845;29;20216;-73
2021/05/08 03:43:25;;;;;;;4.60;2.93;;;;;;;5.66;69.68;100986.09;6094393;29;20199;-73
2021/05/08 03:46:28;;;;;;;3.13;2.93;;;;;;;5.57;70.32;100988.00;6094948;29;20192;-73
2021/05/08 03:49:31;;;;;;;3.40;3.20;;;;;;;5.48;70.52;100999.06;6094349;29;20219;-73
2021/05/08 03:52:34;;;;;;;2.90;2.80;;;;;;;5.66;69.27;100991.50;6095813;29;20192;-73
2021/05/08 03:55:39;;;;;;;2.73;2.63;;;;;;;5.73;68.32;100992.44;6095662;29;20192;-73
2021/05/08 03:58:43;;;;;;;3.00;2.90;;;;;;;5.67;68.44;101004.03;6095806;29;20196;-73
2021/05/08 04:01:46;;;;;;;3.10;3.00;;;;;;;5.55;69.28;101005.44;6095645;29;20192;-74
2021/05/08 04:04:49;;;;;;;3.40;3.10;;;;;;;5.67;69.43;101009.44;6095077;29;20193;-73
2021/05/08 04:07:52;;;;;;;3.10;2.90;;;;;;;5.77;68.27;101003.75;6095368;29;20246;-74
2021/05/08 04:10:57;;;;;;;2.73;2.63;;;;;;;5.59;68.91;100979.72;6095045;29;20239;-74
2021/05/08 04:14:00;;;;;;;2.93;2.83;;;;;;;5.82;68.30;101007.63;6095023;29;20231;-73
2021/05/08 04:17:03;;;;;;;3.20;3.00;;;;;;;5.84;68.55;101010.13;6094638;29;20215;-72
2021/05/08 04:20:07;;;;;;;3.10;3.00;;;;;;;5.59;68.89;100995.97;6093611;29;20218;-73
2021/05/08 04:23:11;;;;;;;3.37;3.27;;;;;;;5.78;68.22;101006.28;6093842;29;20379;-72
2021/05/08 04:26:17;;;;;;;3.47;3.37;;;;;;;5.88;67.71;101012.31;6095298;29;20198;-73
2021/05/08 04:29:20;;;;;;;3.63;3.43;;;;;;;5.96;67.74;101004.13;6095340;29;20216;-73
2021/05/08 04:32:28;;;;;;;2.97;2.87;;;;;;;5.93;67.43;100996.34;6095624;29;20260;-72
2021/05/08 04:35:31;;;;;;;2.93;2.90;;;;;;;6.10;66.82;101014.16;6077319;29;20496;-74
2021/05/08 04:38:38;;;;;;;3.33;3.23;;;;;;;6.05;67.21;101015.75;6094666;29;20197;-73
2021/05/08 04:41:42;;;;;;;3.00;2.90;;;;;;;6.08;67.23;101013.50;6093544;29;20541;-72
2021/05/08 04:44:45;;;;;;;3.13;3.00;;;;;;;6.13;66.86;101015.66;6093908;29;20196;-72
2021/05/08 04:47:48;;;;;;;4.77;2.90;;;;;;;6.23;66.38;101016.25;6094774;29;20192;-73
2021/05/08 04:50:53;;;;;;;3.20;3.00;;;;;;;6.19;66.45;101007.63;6093435;29;20222;-72
2021/05/08 04:53:56;;;;;;;3.43;2.87;;;;;;;6.35;65.92;101016.63;6093563;29;20441;-73
2021/05/08 04:57:02;;;;;;;3.20;3.10;;;;;;;6.36;65.80;101015.59;6099628;29;20283;-73
2021/05/08 05:00:06;;;;;;;2.90;2.80;;;;;;;6.40;65.51;101011.47;6099425;29;20204;-74
2021/05/08 05:03:15;;;;;;;3.03;2.93;;;;;;;6.49;65.04;101013.09;6099312;29;20193;-73
2021/05/08 05:06:18;;;;;;;6.57;3.00;;;;;;;6.55;65.28;101023.19;6082735;29;20236;-73
2021/05/08 05:09:23;;;;;;;3.40;3.20;;;;;;;6.50;65.55;101017.47;6098966;29;20256;-74
2021/05/08 05:12:28;;;;;;;2.93;2.83;;;;;;;6.52;64.97;100999.16;6097981;29;20193;-73
2021/05/08 05:15:31;;;;;;;3.17;2.87;;;;;;;6.59;65.40;101021.78;6099228;29;20223;-72
2021/05/08 05:18:34;;;;;;;3.17;3.00;;;;;;;6.66;65.26;101012.72;6098945;29;20651;-73
2021/05/08 05:21:37;;;;;;;5.23;3.10;;;;;;;6.63;64.89;101023.09;6097936;29;20563;-73
2021/05/08 05:24:40;;;;;;;4.67;3.73;;;;;;;6.75;64.07;101025.13;6097918;29;20228;-73
2021/05/08 05:27:44;;;;;;;4.13;3.40;;;;;;;6.82;64.71;101025.25;6098241;29;20197;-72
2021/05/08 05:30:47;;;;;;;5.40;3.17;;;;;;;6.80;64.40;101019.16;6097846;29;20275;-73
2021/05/08 05:33:50;;;;;;;3.53;3.30;;;;;;;6.80;64.26;101019.16;6097629;29;20472;-72
2021/05/08 05:36:54;;;;;;;3.27;3.17;;;;;;;6.87;64.60;101020.09;6098526;29;20199;-73
2021/05/08 05:39:57;;;;;;;3.27;3.17;;;;;;;7.00;64.85;101017.56;6098401;29;20236;-72
2021/05/08 05:43:02;;;;;;;6.63;3.60;;;;;;;7.08;64.05;101028.31;6098377;29;20197;-72
2021/05/08 05:46:06;;;;;;;4.27;3.60;;;;;;;7.17;63.96;101021.72;6097372;29;20192;-73
2021/05/08 05:49:09;;;;;;;3.57;3.30;;;;;;;7.13;63.05;101016.88;6097118;29;20388;-73
2021/05/08 05:52:13;;;;;;;3.50;3.10;;;;;;;7.41;63.67;101028.69;6098357;29;20261;-73
2021/05/08 05:55:42;;;;;;;3.10;3.00;;;;;;;7.40;62.51;101016.97;6097321;29;20279;-73
2021/05/08 05:58:46;;;;;;;4.30;3.10;;;;;;;7.46;63.02;101032.50;6097092;29;20384;-73
2021/05/08 06:01:49;;;;;;;2.90;2.80;;;;;;;7.63;63.21;101026.84;6097316;29;20196;-73
2021/05/08 06:04:52;;;;;;;2.73;2.63;;;;;;;7.68;61.58;101032.53;6097687;29;20197;-73
2021/05/08 06:07:55;;;;;;;2.90;2.70;;;;;;;7.85;61.88;101028.53;6097902;29;20316;-73
2021/05/08 06:10:58;;;;;;;4.20;2.70;;;;;;;7.95;60.91;101023.59;6097220;29;20220;-72
2021/05/08 06:14:03;;;;;;;2.50;2.50;;;;;;;8.06;61.51;101023.06;6096742;29;20450;-74
2021/05/08 06:17:06;;;;;;;3.00;2.60;;;;;;;8.13;61.24;101026.69;6097029;29;20205;-78
2021/05/08 06:20:12;;;;;;;2.83;2.73;;;;;;;8.29;60.43;101034.59;6097366;29;20542;-73
2021/05/08 06:23:15;;;;;;;3.67;2.65;;;;;;;8.39;60.66;101029.66;6097819;29;20190;-73
2021/05/08 06:26:19;;;;;;;3.35;2.88;;;;;;;8.58;61.28;101034.38;6097041;29;20196;-73
2021/05/08 06:29:23;;;;;;;2.67;2.58;;;;;;;8.59;59.23;101044.22;6097165;29;20217;-73
2021/05/08 06:32:26;;;;;;;2.60;2.60;;;;;;;8.69;59.71;101041.97;6097335;29;20252;-73
2021/05/08 06:35:29;;;;;;;3.08;2.92;;;;;;;8.94;60.16;101044.19;6096057;29;20567;-72
2021/05/08 06:38:32;;;;;;;2.78;2.78;;;;;;;8.77;57.95;101055.41;6097227;29;20190;-72
2021/05/08 06:41:35;;;;;;;2.75;2.47;;;;;;;8.81;58.74;101053.97;6096182;29;20255;-73
2021/05/08 06:44:39;;;;;;;2.70;2.70;;;;;;;8.86;57.49;101056.06;6097216;29;20228;-72
2021/05/08 06:47:42;;;;;;;2.72;2.53;;;;;;;8.71;58.07;101042.59;6097271;29;19954;-73
2021/05/08 06:50:46;;;;;;;;;;;;;;;8.63;57.77;101053.63;6097556;29;20122;-73
2021/05/08 06:53:48;;;;;;;;;;;;;;;8.96;59.18;101058.47;6096918;29;19920;-73
2021/05/08 06:56:51;;;;;;;;;;;;;;;8.95;58.28;101045.88;6096448;29;19961;-73
2021/05/08 06:59:56;;;;;;;3.42;3.00;;;;;;;8.87;58.03;101054.22;6096055;29;20249;-73
2021/05/08 07:02:59;;;;;;;3.00;3.00;;;;;;;9.09;57.64;101053.09;6095503;29;20551;-73
2021/05/08 07:06:03;;;;;;;4.00;3.03;;;;;;;9.08;58.56;101057.69;6095376;29;20556;-73
2021/05/08 07:09:06;;;;;;;3.00;2.70;;;;;;;9.06;58.47;101054.34;6096254;29;20218;-73
2021/05/08 07:12:10;;;;;;;2.67;2.58;;;;;;;8.94;58.08;101057.78;6096165;29;20074;-73
2021/05/08 07:15:14;;;;;;;2.53;2.53;;;;;;;9.17;58.51;101044.72;6096223;29;20196;-73
2021/05/08 07:18:18;;;;;;;3.42;2.50;;;;;;;9.39;57.10;101046.31;6095289;29;20241;-73
2021/05/08 07:21:22;;;;;;;2.63;2.53;;;;;;;9.50;56.92;101056.56;6095657;29;20232;-73
2021/05/08 07:24:25;;;;;;;2.50;2.50;;;;;;;9.30;57.78;101061.13;6095447;29;20190;-73
2021/05/08 07:27:28;;;;;;;12.85;3.15;;;;;;;9.34;57.86;101063.25;6094547;29;20384;-73
2021/05/08 07:30:32;;;;;;;5.55;2.85;;;;;;;9.44;57.10;101060.13;6095715;29;20218;-73
2021/05/08 07:33:35;;;;;;;2.92;2.83;;;;;;;9.61;57.02;101047.81;6095169;29;20186;-73
2021/05/08 07:36:38;;;;;;;4.10;2.70;;;;;;;9.81;59.06;101054.16;6095829;29;20189;-73
2021/05/08 07:39:42;;;;;;;14.15;3.63;;;;;;;9.92;56.76;101050.81;6095888;29;20201;-74
2021/05/08 07:42:46;;;;;;;3.60;2.67;;;;;;;9.92;57.71;101056.28;6094671;29;20480;-73
2021/05/08 07:45:50;;;;;;;;;;;;;;;9.97;55.41;101059.22;6095977;29;20190;-73
2021/05/08 07:48:53;;;;;;;2.72;2.63;;;;;;;10.00;55.88;101064.25;6095325;29;19975;-73
2021/05/08 07:51:56;;;;;;;3.03;2.83;;;;;;;9.91;54.66;101059.22;6094301;29;20217;-73
2021/05/08 07:55:00;;;;;;;10.85;3.13;;;;;;;10.05;54.79;101067.19;6094933;29;20205;-73
2021/05/08 07:58:05;;;;;;;4.20;2.65;;;;;;;10.06;53.17;101079.78;6095335;29;20231;-73
2021/05/08 08:01:09;;;;;;;3.43;2.30;;;;;;;10.04;53.22;101073.69;6095217;29;20200;-73
2021/05/08 08:04:12;;;;;;;2.72;2.58;;;;;;;10.03;52.23;101072.03;6093868;29;20228;-73
2021/05/08 08:07:15;;;;;;;;;;;;;;;9.98;52.71;101071.81;6095347;29;20085;-73
2021/05/08 08:10:18;;;;;;;;;;;;;;;10.11;51.86;101075.59;6095199;29;19958;-73
2021/05/08 08:13:21;;;;;;;;;;;;;;;10.19;52.31;101073.53;6095278;29;19926;-73
2021/05/08 08:16:25;;;;;;;;;;;;;;;10.24;51.39;101081.09;6094817;29;19967;-72
2021/05/08 08:19:28;;;;;;;;;;;;;;;10.18;50.79;101081.91;6095551;29;19919;-73
2021/05/08 08:22:31;;;;;;;;;;;;;;;10.26;50.92;101084.44;6093770;29;20253;-73
2021/05/08 08:25:34;;;;;;;;;;;;;;;10.23;52.11;101082.13;6093845;29;19919;-74
2021/05/08 08:28:37;;;;;;;2.50;2.30;;;;;;;10.32;53.19;101078.16;6095341;29;19923;-73
2021/05/08 08:31:42;;;;;;;5.20;3.00;;;;;;;10.39;50.84;101089.91;6093989;29;20471;-73
2021/05/08 08:34:48;;;;;;;2.90;2.75;;;;;;;10.42;52.27;101094.94;6094313;29;20196;-73
2021/05/08 08:37:52;;;;;;;3.25;3.05;;;;;;;10.41;49.03;101087.81;6094302;29;20189;-73
2021/05/08 08:40:56;;;;;;;4.03;3.72;;;;;;;10.53;48.53;101086.09;6094001;29;20200;-73
2021/05/08 08:43:59;;;;;;;12.00;6.60;;;;;;;10.53;49.29;101075.19;6094521;29;20256;-73
2021/05/08 08:47:04;;;;;;;5.80;4.20;;;;;;;10.64;50.76;101089.06;6093776;29;20189;-72
2021/05/08 08:50:10;;;;;;;3.35;3.15;;;;;;;10.62;50.39;101084.88;6094088;29;20235;-72
2021/05/08 08:53:14;;;;;;;2.60;2.50;;;;;;;10.64;48.93;101088.22;6093122;29;20386;-73
2021/05/08 08:56:19;;;;;;;3.35;2.33;;;;;;;10.64;47.42;101075.41;6093251;29;20205;-72
2021/05/08 08:59:27;;;;;;;2.65;2.25;;;;;;;10.68;47.53;101089.47;6094395;29;20190;-73
2021/05/08 09:02:31;;;;;;;2.75;2.17;;;;;;;10.64;48.21;101090.94;6094529;29;20190;-72
2021/05/08 09:05:35;;;;;;;2.55;2.40;;;;;;;10.67;48.12;101093.25;6093479;29;20229;-73
2021/05/08 09:08:39;;;;;;;2.63;2.40;;;;;;;10.71;47.04;101088.22;6094116;29;20272;-73
2021/05/08 09:11:47;;;;;;;6.72;2.60;;;;;;;10.73;47.43;101097.88;6092858;29;20213;-73
2021/05/08 09:14:50;;;;;;;2.30;2.20;;;;;;;10.67;47.00;101076.88;6092451;29;20476;-73
2021/05/08 09:17:54;;;;;;;2.28;2.28;;;;;;;10.67;47.60;101087.78;6093082;29;20233;-73
2021/05/08 09:20:58;;;;;;;4.05;2.03;;;;;;;10.72;47.43;101101.66;6094131;29;20193;-73
2021/05/08 09:24:02;;;;;;;2.15;2.15;;;;;;;10.77;48.48;101096.38;6093858;29;20189;-73
2021/05/08 09:27:06;;;;;;;2.10;2.10;;;;;;;10.94;47.10;101091.34;6076462;29;20519;-72
2021/05/08 09:30:15;;;;;;;2.05;2.05;;;;;;;11.03;46.92;101093.63;6092964;29;20217;-72
2021/05/08 09:33:25;;;;;;;3.17;2.35;;;;;;;11.06;47.95;101093.19;6093418;29;20230;-72
2021/05/08 09:36:48;;;;;;;3.70;3.60;;;;;;;11.03;48.03;101096.34;6093280;29;20214;-73
2021/05/08 09:39:51;;;;;;;2.65;2.55;;;;;;;11.02;47.79;101091.94;6093691;29;20194;-73
2021/05/08 09:42:56;;;;;;;2.22;2.22;;;;;;;11.05;47.53;101102.44;6097553;29;20225;-73
2021/05/08 09:45:59;;;;;;;2.45;2.30;;;;;;;11.12;46.80;101088.75;6097782;29;20196;-72
2021/05/08 09:49:11;;;;;;;2.22;2.13;;;;;;;11.19;46.24;101106.81;6081248;29;20236;-73
2021/05/08 09:52:21;;;;;;;6.53;2.85;;;;;;;11.33;47.10;101104.84;6097624;29;20221;-73
2021/05/08 09:55:26;;;;;;;3.13;2.97;;;;;;;11.43;46.89;101104.44;6097287;29;20225;-72
2021/05/08 09:58:29;;;;;;;2.70;2.50;;;;;;;11.48;46.72;101086.31;6097560;29;20196;-73
2021/05/08 10:01:32;;;;;;;2.58;2.47;;;;;;;11.55;45.65;101083.56;6096419;29;20268;-72
2021/05/08 10:04:37;;;;;;;3.53;2.45;;;;;;;11.65;46.66;101084.78;6097412;29;20275;-73
2021/05/08 10:07:41;;;;;;;5.32;2.60;;;;;;;11.63;47.52;101088.78;6096051;29;20225;-72
2021/05/08 10:10:44;;;;;;;2.38;2.17;;;;;;;11.56;44.12;101093.41;6096137;29;20575;-73
2021/05/08 10:13:47;;;;;;;2.60;2.40;;;;;;;11.53;44.44;101096.59;6097431;29;20193;-72
2021/05/08 10:16:51;;;;;;;2.45;2.38;;;;;;;11.61;44.30;101090.88;6096355;29;20484;-73
2021/05/08 10:20:01;;;;;;;2.42;2.33;;;;;;;11.78;43.40;101097.56;6097227;29;20418;-73
2021/05/08 10:23:08;;;;;;;2.33;2.28;;;;;;;11.69;42.59;101098.84;6096553;29;20205;-72
2021/05/08 10:26:11;;;;;;;2.25;2.25;;;;;;;11.74;43.34;101090.84;6096953;29;20189;-72
2021/05/08 10:29:15;;;;;;;3.33;2.13;;;;;;;11.64;41.45;101090.44;6096369;29;20257;-72
2021/05/08 10:32:20;;;;;;;2.50;2.30;;;;;;;11.84;41.20;101093.94;6097345;29;20253;-73
2021/05/08 10:35:42;;;;;;;3.65;2.47;;;;;;;11.88;43.22;101103.38;6096165;29;20503;-73
2021/05/08 10:39:05;;;;;;;2.33;2.30;;;;;;;11.95;41.23;101098.72;6095852;29;20496;-73
2021/05/08 10:42:11;;;;;;;5.13;2.88;;;;;;;11.98;41.89;101106.47;6096572;29;20198;-73
2021/05/08 10:45:33;;;;;;;11.68;2.75;;;;;;;12.04;40.30;101091.94;6095952;29;20190;-73
2021/05/08 10:48:38;;;;;;;2.53;2.42;;;;;;;11.91;40.09;101108.44;6095670;29;20460;-73
2021/05/08 10:51:59;;;;;;;2.78;2.22;;;;;;;11.97;39.21;101104.78;6095265;29;20213;-73
2021/05/08 10:55:21;;;;;;;2.15;2.10;;;;;;;12.02;41.09;101104.97;6096948;29;20222;-73
2021/05/08 10:59:02;;;;;;;2.40;2.30;;;;;;;12.17;41.22;101097.28;6095628;29;20197;-74
2021/05/08 11:02:06;;;;;;;4.97;2.33;;;;;;;12.16;43.20;101095.63;6096896;29;20201;-74
2021/05/08 11:05:20;;;;;;;2.65;2.55;;;;;;;12.20;41.96;101087.81;6095662;29;20378;-72
2021/05/08 11:08:52;;;;;;;2.42;2.33;;;;;;;12.15;43.03;101077.53;6095287;29;20196;-72
2021/05/08 11:12:01;;;;;;;2.20;2.15;;;;;;;12.22;42.69;101100.19;6095349;29;20418;-74
2021/05/08 11:15:05;;;;;;;2.13;2.10;;;;;;;12.23;43.46;101101.91;6095933;29;20193;-74
2021/05/08 11:18:33;;;;;;;2.40;2.10;;;;;;;12.17;40.85;101110.97;6095737;29;20241;-73
2021/05/08 11:21:42;;;;;;;2.58;2.10;;;;;;;12.03;40.66;101109.41;6094917;29;20480;-72
2021/05/08 11:24:48;;;;;;;2.30;1.90;;;;;;;12.14;42.35;101118.81;6094856;29;20218;-72
2021/05/08 11:28:06;;;;;;;5.78;2.35;;;;;;;12.24;41.11;101106.31;6095023;29;20285;-75
2021/05/08 11:31:13;;;;;;;8.32;2.22;;;;;;;12.33;41.29;101107.72;6094641;29;20468;-73
2021/05/08 11:34:18;;;;;;;2.15;2.15;;;;;;;12.34;41.78;101120.34;6095510;29;20245;-73
2021/05/08 11:37:22;;;;;;;3.65;1.90;;;;;;;12.21;41.79;101093.06;6095446;29;20230;-72
2021/05/08 11:40:33;;;;;;;1.90;1.80;;;;;;;12.46;40.26;101126.75;6094319;29;20395;-73
2021/05/08 11:43:36;;;;;;;1.85;1.73;;;;;;;12.65;39.29;101113.13;6095579;29;20227;-74
2021/05/08 11:46:39;;;;;;;2.15;1.70;;;;;;;12.63;38.91;101123.47;6095898;29;20220;-73
2021/05/08 11:49:42;;;;;;;1.58;1.58;;;;;;;12.89;38.96;101109.56;6078432;29;20411;-73
2021/05/08 11:52:48;;;;;;;1.75;1.75;;;;;;;12.94;38.83;101116.00;6094913;29;20245;-73
2021/05/08 11:55:53;;;;;;;1.67;1.45;;;;;;;13.00;38.62;101119.75;6094208;29;20419;-72
2021/05/08 11:58:56;;;;;;;1.63;1.52;;;;;;;13.12;39.16;101123.47;6095000;29;20190;-73
2021/05/08 12:02:16;;;;;;;1.92;1.77;;;;;;;13.17;39.01;101120.91;6094535;29;20293;-74
2021/05/08 12:05:23;;;;;;;1.80;1.80;;;;;;;13.20;39.55;101127.81;6093668;29;20463;-72
2021/05/08 12:08:27;;;;;;;1.67;1.60;;;;;;;13.27;38.79;101136.78;6094723;29;20189;-72
2021/05/08 12:11:31;;;;;;;6.45;2.17;;;;;;;13.31;39.80;101122.41;6095286;29;20269;-72
2021/05/08 12:14:40;;;;;;;2.28;2.17;;;;;;;13.48;39.44;101139.91;6093794;29;20227;-73
2021/05/08 12:17:43;;;;;;;2.90;2.10;;;;;;;13.51;38.79;101147.69;6093949;29;20524;-73
2021/05/08 12:20:48;;;;;;;2.97;1.75;;;;;;;13.62;37.82;101157.88;6094620;29;20193;-73
2021/05/08 12:23:52;;;;;;;2.10;1.90;;;;;;;13.80;38.70;101146.06;6093551;29;20476;-72
2021/05/08 12:26:56;;;;;;;2.88;1.80;;;;;;;13.76;38.37;101148.41;6093717;29;20274;-72
2021/05/08 12:29:59;;;;;;;4.10;2.13;;;;;;;13.78;37.77;101146.31;6094604;29;20196;-73
2021/05/08 12:33:02;;;;;;;1.93;1.90;;;;;;;13.59;36.71;101152.84;6093316;29;20506;-73
2021/05/08 12:36:14;;;;;;;2.00;1.90;;;;;;;13.50;36.66;101161.63;6094446;29;20196;-72
2021/05/08 12:39:19;;;;;;;1.85;1.85;;;;;;;13.40;36.55;101169.53;6093235;29;20386;-72
2021/05/08 12:42:40;;;;;;;3.20;1.80;;;;;;;13.36;36.55;101173.78;6093892;29;20194;-72
2021/05/08 12:46:01;;;;;;;1.83;1.83;;;;;;;13.03;36.67;101198.75;6094358;29;20241;-73
2021/05/08 12:49:07;;;;;;;3.78;1.83;;;;;;;12.52;40.58;101210.72;6093144;29;20190;-73
2021/05/08 12:52:23;;;;;;;4.50;2.28;;;;;;;12.10;44.00;101216.84;6093791;29;20217;-73
2021/05/08 12:55:31;;;;;;;8.52;2.28;;;;;;;12.09;43.82;101209.72;6093404;29;20267;-72
2021/05/08 12:58:36;;;;;;;4.90;2.20;;;;;;;11.90;44.60;101224.31;6092964;29;20520;-73
2021/05/08 13:01:41;;;;;;;4.88;1.80;;;;;;;11.84;44.53;101216.97;6093733;29;20202;-72
2021/05/08 13:04:46;;;;;;;2.05;2.05;;;;;;;12.04;45.37;101239.63;6094272;29;20237;-72
2021/05/08 13:08:00;;;;;;;1.80;1.80;;;;;;;11.83;44.91;101232.53;6093103;29;20476;-72
2021/05/08 13:11:03;;;;;;;2.17;1.70;;;;;;;12.17;44.56;101255.94;6094384;29;20279;-72
2021/05/08 13:14:22;;;;;;;1.75;1.75;;;;;;;12.30;43.78;101250.41;6094229;29;20286;-72
2021/05/08 13:17:25;;;;;;;4.95;1.85;;;;;;;12.54;43.62;101260.59;6098098;29;20205;-72
2021/05/08 13:20:31;;;;;;;1.50;1.50;;;;;;;12.64;42.72;101267.47;6074119;29;20535;-73
2021/05/08 13:23:35;;;;;;;4.43;1.90;;;;;;;12.52;43.51;101260.00;6074949;29;20190;-72
2021/05/08 13:26:38;;;;;;;1.95;1.88;;;;;;;12.32;42.01;101275.69;6074838;29;20189;-71
2021/05/08 13:29:42;;;;;;;2.40;2.15;;;;;;;12.20;42.80;101282.88;6074119;29;20198;-72
2021/05/08 13:32:49;;;;;;;3.05;1.63;;;;;;;12.27;43.69;101289.19;6075065;29;20214;-72
2021/05/08 13:35:53;;;;;;;1.48;1.48;;;;;;;11.92;43.60;101285.06;6073866;29;20420;-73
2021/05/08 13:38:56;;;;;;;3.40;1.60;;;;;;;12.06;44.08;101291.34;6073507;29;20190;-72
2021/05/08 13:41:59;;;;;;;4.32;1.55;;;;;;;11.93;45.41;101297.72;6073730;29;20257;-72
2021/05/08 13:45:08;;;;;;;4.10;1.40;;;;;;;12.10;45.31;101287.13;6074075;29;20190;-73
2021/05/08 13:48:13;;;;;;;2.17;1.70;;;;;;;12.23;45.25;101296.13;6058583;29;20284;-73
2021/05/08 13:51:19;;;;;;;1.75;1.65;;;;;;;12.12;46.55;101285.84;6074749;29;20281;-74
2021/05/08 13:54:22;;;;;;;4.03;1.80;;;;;;;12.31;45.63;101279.47;6073683;29;20253;-73
2021/05/08 13:57:25;;;;;;;6.85;2.22;;;;;;;12.34;46.01;101295.44;6074669;29;20190;-72
2021/05/08 14:00:30;;;;;;;3.83;1.77;;;;;;;13.01;44.92;101281.16;6074235;29;20194;-72
2021/05/08 14:03:34;;;;;;;1.77;1.70;;;;;;;13.11;43.90;101286.16;6074310;29;20194;-72
2021/05/08 14:06:37;;;;;;;4.05;1.88;;;;;;;12.97;45.50;101274.41;6073148;29;20366;-72
2021/05/08 14:09:41;;;;;;;3.33;1.83;;;;;;;14.07;43.44;101264.53;6074506;29;20250;-73
2021/05/08 14:12:45;;;;;;;;;;;;;;;14.82;41.16;101274.91;6074494;29;20218;-72
2021/05/08 14:15:49;;;;;;;5.13;1.60;;;;;;;15.16;40.12;101264.25;6073288;29;20068;-73
2021/05/08 14:18:52;;;;;;;6.07;1.70;;;;;;;15.12;40.13;101263.91;6083898;29;21059;-73
2021/05/08 14:21:55;;;;;;;3.38;1.60;;;;;;;14.35;41.28;101262.09;6096074;29;20419;-72
2021/05/08 14:24:58;;;;;;;2.17;2.10;;;;;;;13.38;44.55;101265.66;6097169;29;20225;-73
2021/05/08 14:28:01;;;;;;;3.15;1.77;;;;;;;13.45;44.63;101265.63;6097169;29;20221;-73
2021/05/08 14:31:06;;;;;;;1.52;1.52;;;;;;;13.18;44.91;101265.00;6097101;29;20190;-73